sensor_id;sensor_type;location;lat;lon;timestamp;pressure;altitude;pressure_sealevel;temperature
47484;BMP280;54076;50.322;18.650;2023-06-26T00:02:21;152435.69;;;10.77
47484;BMP280;54076;50.322;18.650;2023-06-26T00:07:22;152092.78;;;10.63
47484;BMP280;54076;50.322;18.650;2023-06-26T00:12:23;151902.94;;;10.55
47484;BMP280;54076;50.322;18.650;2023-06-26T00:17:24;151385.41;;;10.34
47484;BMP280;54076;50.322;18.650;2023-06-26T00:22:25;151352.63;;;10.31
47484;BMP280;54076;50.322;18.650;2023-06-26T00:27:26;151521.84;;;10.37
47484;BMP280;54076;50.322;18.650;2023-06-26T00:32:26;151338.86;;;10.29
47484;BMP280;54076;50.322;18.650;2023-06-26T00:37:27;151399.47;;;10.31
47484;BMP280;54076;50.322;18.650;2023-06-26T00:42:28;151263.61;;;10.24
47484;BMP280;54076;50.322;18.650;2023-06-26T00:47:29;151114.08;;;10.17
47484;BMP280;54076;50.322;18.650;2023-06-26T00:52:31;151358.09;;;10.28
47484;BMP280;54076;50.322;18.650;2023-06-26T00:57:33;150805.09;;;10.06
47484;BMP280;54076;50.322;18.650;2023-06-26T01:02:33;150650.91;;;9.98
47484;BMP280;54076;50.322;18.650;2023-06-26T01:07:35;150681.80;;;9.99
47484;BMP280;54076;50.322;18.650;2023-06-26T01:12:38;150451.56;;;9.88
47484;BMP280;54076;50.322;18.650;2023-06-26T01:17:40;150412.55;;;9.86
47484;BMP280;54076;50.322;18.650;2023-06-26T01:28:24;150415.72;;;9.84
47484;BMP280;54076;50.322;18.650;2023-06-26T01:33:25;150361.03;;;9.81
47484;BMP280;54076;50.322;18.650;2023-06-26T01:38:27;150203.20;;;9.75
47484;BMP280;54076;50.322;18.650;2023-06-26T01:43:57;150210.63;;;9.75
47484;BMP280;54076;50.322;18.650;2023-06-26T01:49:28;149986.75;;;9.67
47484;BMP280;54076;50.322;18.650;2023-06-26T01:54:33;149991.97;;;9.65
47484;BMP280;54076;50.322;18.650;2023-06-26T01:59:37;149848.20;;;9.59
47484;BMP280;54076;50.322;18.650;2023-06-26T02:04:40;149726.70;;;9.53
47484;BMP280;54076;50.322;18.650;2023-06-26T02:09:41;149648.16;;;9.48
47484;BMP280;54076;50.322;18.650;2023-06-26T02:14:42;149944.28;;;9.58
47484;BMP280;54076;50.322;18.650;2023-06-26T02:19:43;150083.58;;;9.63
47484;BMP280;54076;50.322;18.650;2023-06-26T02:24:48;149962.25;;;9.59
47484;BMP280;54076;50.322;18.650;2023-06-26T02:29:48;149807.84;;;9.51
47484;BMP280;54076;50.322;18.650;2023-06-26T02:34:49;149797.91;;;9.50
47484;BMP280;54076;50.322;18.650;2023-06-26T02:39:52;149921.11;;;9.54
47484;BMP280;54076;50.322;18.650;2023-06-26T02:44:53;149795.84;;;9.48
47484;BMP280;54076;50.322;18.650;2023-06-26T02:49:54;149605.63;;;9.41
47484;BMP280;54076;50.322;18.650;2023-06-26T02:54:55;149611.59;;;9.40
47484;BMP280;54076;50.322;18.650;2023-06-26T02:59:56;149594.47;;;9.39
47484;BMP280;54076;50.322;18.650;2023-06-26T03:04:56;149505.59;;;9.34
47484;BMP280;54076;50.322;18.650;2023-06-26T03:09:58;149525.59;;;9.33
47484;BMP280;54076;50.322;18.650;2023-06-26T03:15:00;149715.19;;;9.39
47484;BMP280;54076;50.322;18.650;2023-06-26T03:20:00;149933.06;;;9.47
47484;BMP280;54076;50.322;18.650;2023-06-26T03:25:03;150193.92;;;9.56
47484;BMP280;54076;50.322;18.650;2023-06-26T03:30:04;150303.13;;;9.59
47484;BMP280;54076;50.322;18.650;2023-06-26T03:35:06;150342.14;;;9.59
47484;BMP280;54076;50.322;18.650;2023-06-26T03:40:08;150551.59;;;9.67
47484;BMP280;54076;50.322;18.650;2023-06-26T03:45:09;150633.28;;;9.69
47484;BMP280;54076;50.322;18.650;2023-06-26T03:50:10;150855.34;;;9.76
47484;BMP280;54076;50.322;18.650;2023-06-26T03:55:11;150905.16;;;9.77
47484;BMP280;54076;50.322;18.650;2023-06-26T04:00:14;151094.95;;;9.83
47484;BMP280;54076;50.322;18.650;2023-06-26T04:05:15;151323.95;;;9.90
47484;BMP280;54076;50.322;18.650;2023-06-26T04:10:18;151629.25;;;10.02
47484;BMP280;54076;50.322;18.650;2023-06-26T04:15:21;152024.28;;;10.17
47484;BMP280;54076;50.322;18.650;2023-06-26T04:20:22;152523.41;;;10.38
47484;BMP280;54076;50.322;18.650;2023-06-26T04:25:23;152951.72;;;10.55
47484;BMP280;54076;50.322;18.650;2023-06-26T04:30:23;153498.08;;;10.81
47484;BMP280;54076;50.322;18.650;2023-06-26T04:35:24;153780.88;;;10.96
47484;BMP280;54076;50.322;18.650;2023-06-26T04:40:25;154202.91;;;11.17
47484;BMP280;54076;50.322;18.650;2023-06-26T04:45:26;154395.28;;;11.25
47484;BMP280;54076;50.322;18.650;2023-06-26T04:50:27;154574.92;;;11.34
47484;BMP280;54076;50.322;18.650;2023-06-26T04:55:29;154921.59;;;11.47
47484;BMP280;54076;50.322;18.650;2023-06-26T05:00:31;155276.30;;;11.68
47484;BMP280;54076;50.322;18.650;2023-06-26T05:05:33;155863.25;;;11.96
47484;BMP280;54076;50.322;18.650;2023-06-26T05:10:34;155880.84;;;11.96
47484;BMP280;54076;50.322;18.650;2023-06-26T05:15:34;156445.20;;;12.23
47484;BMP280;54076;50.322;18.650;2023-06-26T05:20:36;156860.42;;;12.42
47484;BMP280;54076;50.322;18.650;2023-06-26T05:25:37;157256.91;;;12.61
47484;BMP280;54076;50.322;18.650;2023-06-26T05:30:39;157582.16;;;12.76
47484;BMP280;54076;50.322;18.650;2023-06-26T05:35:40;157925.09;;;12.93
47484;BMP280;54076;50.322;18.650;2023-06-26T05:40:42;158584.34;;;13.25
47484;BMP280;54076;50.322;18.650;2023-06-26T05:45:43;158927.69;;;13.42
47484;BMP280;54076;50.322;18.650;2023-06-26T05:50:44;159592.91;;;13.80
47484;BMP280;54076;50.322;18.650;2023-06-26T05:55:46;159739.84;;;13.89
47484;BMP280;54076;50.322;18.650;2023-06-26T06:00:47;159867.78;;;13.95
47484;BMP280;54076;50.322;18.650;2023-06-26T06:05:48;160097.86;;;14.09
47484;BMP280;54076;50.322;18.650;2023-06-26T06:10:49;160182.73;;;14.15
47484;BMP280;54076;50.322;18.650;2023-06-26T06:15:50;160580.78;;;14.38
47484;BMP280;54076;50.322;18.650;2023-06-26T06:20:51;160969.94;;;14.62
47484;BMP280;54076;50.322;18.650;2023-06-26T06:25:51;161426.41;;;14.93
47484;BMP280;54076;50.322;18.650;2023-06-26T06:30:52;161576.09;;;15.06
47484;BMP280;54076;50.322;18.650;2023-06-26T06:35:53;161354.53;;;14.93
47484;BMP280;54076;50.322;18.650;2023-06-26T06:40:54;161437.03;;;15.02
47484;BMP280;54076;50.322;18.650;2023-06-26T06:45:55;161723.30;;;15.22
47484;BMP280;54076;50.322;18.650;2023-06-26T06:50:56;162096.47;;;15.46
47484;BMP280;54076;50.322;18.650;2023-06-26T06:55:57;162166.33;;;15.53
47484;BMP280;54076;50.322;18.650;2023-06-26T07:00:58;162397.56;;;15.70
47484;BMP280;54076;50.322;18.650;2023-06-26T07:05:59;162636.63;;;15.87
47484;BMP280;54076;50.322;18.650;2023-06-26T07:10:59;162880.80;;;16.05
47484;BMP280;54076;50.322;18.650;2023-06-26T07:16:00;163287.22;;;16.31
47484;BMP280;54076;50.322;18.650;2023-06-26T07:21:01;163353.50;;;16.39
47484;BMP280;54076;50.322;18.650;2023-06-26T07:26:02;163759.53;;;16.67
47484;BMP280;54076;50.322;18.650;2023-06-26T07:31:03;163867.30;;;16.77
47484;BMP280;54076;50.322;18.650;2023-06-26T07:36:04;164065.84;;;16.91
47484;BMP280;54076;50.322;18.650;2023-06-26T07:41:05;164202.16;;;17.02
47484;BMP280;54076;50.322;18.650;2023-06-26T07:46:06;164574.66;;;17.26
47484;BMP280;54076;50.322;18.650;2023-06-26T07:51:07;164596.16;;;17.28
47484;BMP280;54076;50.322;18.650;2023-06-26T07:56:08;164774.27;;;17.40
47484;BMP280;54076;50.322;18.650;2023-06-26T08:01:09;164954.34;;;17.50
47484;BMP280;54076;50.322;18.650;2023-06-26T08:06:10;165026.84;;;17.55
47484;BMP280;54076;50.322;18.650;2023-06-26T08:11:11;165132.66;;;17.62
47484;BMP280;54076;50.322;18.650;2023-06-26T08:16:11;165491.09;;;17.84
47484;BMP280;54076;50.322;18.650;2023-06-26T08:21:13;165555.25;;;17.87
47484;BMP280;54076;50.322;18.650;2023-06-26T08:26:14;165782.66;;;18.02
47484;BMP280;54076;50.322;18.650;2023-06-26T08:31:16;166183.56;;;18.27
47484;BMP280;54076;50.322;18.650;2023-06-26T08:36:17;166448.58;;;18.42
47484;BMP280;54076;50.322;18.650;2023-06-26T08:41:18;166528.53;;;18.46
47484;BMP280;54076;50.322;18.650;2023-06-26T08:46:19;166860.28;;;18.69
47484;BMP280;54076;50.322;18.650;2023-06-26T08:51:21;166840.59;;;18.65
47484;BMP280;54076;50.322;18.650;2023-06-26T08:56:33;167148.72;;;18.92
47484;BMP280;54076;50.322;18.650;2023-06-26T09:01:37;167173.28;;;18.92
47484;BMP280;54076;50.322;18.650;2023-06-26T09:06:38;167420.97;;;19.18
47484;BMP280;54076;50.322;18.650;2023-06-26T09:11:40;167624.72;;;19.31
47484;BMP280;54076;50.322;18.650;2023-06-26T09:16:42;167845.30;;;19.56
47484;BMP280;54076;50.322;18.650;2023-06-26T09:21:43;168236.05;;;19.87
47484;BMP280;54076;50.322;18.650;2023-06-26T09:26:44;168329.09;;;20.00
47484;BMP280;54076;50.322;18.650;2023-06-26T09:31:45;167990.67;;;19.94
47484;BMP280;54076;50.322;18.650;2023-06-26T09:36:46;167657.30;;;19.70
47484;BMP280;54076;50.322;18.650;2023-06-26T09:41:48;168586.19;;;20.21
47484;BMP280;54076;50.322;18.650;2023-06-26T09:46:50;168956.13;;;20.49
47484;BMP280;54076;50.322;18.650;2023-06-26T09:51:51;168776.47;;;20.35
47484;BMP280;54076;50.322;18.650;2023-06-26T09:56:55;168879.45;;;20.42
47484;BMP280;54076;50.322;18.650;2023-06-26T10:01:59;169234.38;;;20.70
47484;BMP280;54076;50.322;18.650;2023-06-26T10:07:12;169196.42;;;20.66
47484;BMP280;54076;50.322;18.650;2023-06-26T10:12:31;169511.30;;;20.91
47484;BMP280;54076;50.322;18.650;2023-06-26T10:17:35;170535.80;;;21.75
47484;BMP280;54076;50.322;18.650;2023-06-26T10:22:45;170058.59;;;21.33
47484;BMP280;54076;50.322;18.650;2023-06-26T10:27:59;171259.83;;;22.37
47484;BMP280;54076;50.322;18.650;2023-06-26T10:33:00;172194.08;;;23.23
47484;BMP280;54076;50.322;18.650;2023-06-26T10:38:03;172962.86;;;23.95
47484;BMP280;54076;50.322;18.650;2023-06-26T10:43:09;173625.44;;;24.62
47484;BMP280;54076;50.322;18.650;2023-06-26T10:48:15;173376.09;;;24.39
47484;BMP280;54076;50.322;18.650;2023-06-26T11:03:44;173557.97;;;24.58
47484;BMP280;54076;50.322;18.650;2023-06-26T11:08:50;172133.80;;;23.27
47484;BMP280;54076;50.322;18.650;2023-06-26T11:13:52;173235.70;;;24.25
47484;BMP280;54076;50.322;18.650;2023-06-26T11:18:58;173540.63;;;24.57
47484;BMP280;54076;50.322;18.650;2023-06-26T11:24:00;174695.47;;;25.76
47484;BMP280;54076;50.322;18.650;2023-06-26T11:29:02;174694.20;;;25.79
47484;BMP280;54076;50.322;18.650;2023-06-26T11:34:08;172453.06;;;23.70
47484;BMP280;54076;50.322;18.650;2023-06-26T11:39:12;174195.63;;;25.21
47484;BMP280;54076;50.322;18.650;2023-06-26T11:44:13;174842.19;;;25.94
47484;BMP280;54076;50.322;18.650;2023-06-26T11:49:22;174439.59;;;25.48
47484;BMP280;54076;50.322;18.650;2023-06-26T11:54:26;174807.80;;;25.97
47484;BMP280;54076;50.322;18.650;2023-06-26T11:59:38;175130.48;;;26.31
47484;BMP280;54076;50.322;18.650;2023-06-26T12:04:42;174834.02;;;25.96
47484;BMP280;54076;50.322;18.650;2023-06-26T12:09:46;174933.48;;;26.08
47484;BMP280;54076;50.322;18.650;2023-06-26T12:14:47;175320.03;;;26.54
47484;BMP280;54076;50.322;18.650;2023-06-26T12:19:48;175587.34;;;26.86
47484;BMP280;54076;50.322;18.650;2023-06-26T12:24:50;176326.97;;;27.71
47484;BMP280;54076;50.322;18.650;2023-06-26T12:29:53;176424.25;;;27.85
47484;BMP280;54076;50.322;18.650;2023-06-26T12:34:57;175329.55;;;26.58
47484;BMP280;54076;50.322;18.650;2023-06-26T12:39:58;175610.16;;;26.91
47484;BMP280;54076;50.322;18.650;2023-06-26T12:45:10;175522.77;;;26.84
47484;BMP280;54076;50.322;18.650;2023-06-26T12:50:12;175305.97;;;26.57
47484;BMP280;54076;50.322;18.650;2023-06-26T12:55:13;175775.63;;;27.12
47484;BMP280;54076;50.322;18.650;2023-06-26T13:00:14;175867.00;;;27.24
47484;BMP280;54076;50.322;18.650;2023-06-26T13:05:15;175555.03;;;26.91
47484;BMP280;54076;50.322;18.650;2023-06-26T13:10:16;175552.91;;;26.90
47484;BMP280;54076;50.322;18.650;2023-06-26T13:15:17;175397.16;;;26.71
47484;BMP280;54076;50.322;18.650;2023-06-26T13:20:18;175732.64;;;27.10
47484;BMP280;54076;50.322;18.650;2023-06-26T13:25:20;175673.50;;;27.00
47484;BMP280;54076;50.322;18.650;2023-06-26T13:30:21;175337.70;;;26.65
47484;BMP280;54076;50.322;18.650;2023-06-26T13:35:22;175295.22;;;26.61
47484;BMP280;54076;50.322;18.650;2023-06-26T13:40:24;174397.02;;;25.57
47484;BMP280;54076;50.322;18.650;2023-06-26T13:45:25;174378.66;;;25.55
47484;BMP280;54076;50.322;18.650;2023-06-26T13:50:26;174131.47;;;25.29
47484;BMP280;54076;50.322;18.650;2023-06-26T13:55:27;174250.38;;;25.40
47484;BMP280;54076;50.322;18.650;2023-06-26T14:00:28;174351.75;;;25.52
47484;BMP280;54076;50.322;18.650;2023-06-26T14:05:30;174159.97;;;25.32
47484;BMP280;54076;50.322;18.650;2023-06-26T14:10:31;174099.22;;;25.27
47484;BMP280;54076;50.322;18.650;2023-06-26T14:15:34;173845.25;;;25.03
47484;BMP280;54076;50.322;18.650;2023-06-26T14:20:36;173885.39;;;25.04
47484;BMP280;54076;50.322;18.650;2023-06-26T14:25:37;173885.25;;;25.04
47484;BMP280;54076;50.322;18.650;2023-06-26T14:30:37;174113.06;;;25.26
47484;BMP280;54076;50.322;18.650;2023-06-26T14:35:38;173883.80;;;25.02
47484;BMP280;54076;50.322;18.650;2023-06-26T14:40:39;173973.16;;;25.14
47484;BMP280;54076;50.322;18.650;2023-06-26T14:45:41;174231.81;;;25.40
47484;BMP280;54076;50.322;18.650;2023-06-26T14:50:42;174492.75;;;25.67
47484;BMP280;54076;50.322;18.650;2023-06-26T14:55:43;174712.61;;;25.90
47484;BMP280;54076;50.322;18.650;2023-06-26T15:00:44;174915.59;;;26.16
47484;BMP280;54076;50.322;18.650;2023-06-26T15:05:45;174848.09;;;26.09
47484;BMP280;54076;50.322;18.650;2023-06-26T15:10:46;175168.53;;;26.46
47484;BMP280;54076;50.322;18.650;2023-06-26T15:15:46;175775.53;;;27.17
47484;BMP280;54076;50.322;18.650;2023-06-26T15:20:47;175798.00;;;27.20
47484;BMP280;54076;50.322;18.650;2023-06-26T15:25:48;175793.95;;;27.19
47484;BMP280;54076;50.322;18.650;2023-06-26T15:30:49;176096.75;;;27.55
47484;BMP280;54076;50.322;18.650;2023-06-26T15:35:50;176839.72;;;28.42
47484;BMP280;54076;50.322;18.650;2023-06-26T15:40:52;177191.31;;;28.90
47484;BMP280;54076;50.322;18.650;2023-06-26T15:45:52;176385.30;;;27.93
47484;BMP280;54076;50.322;18.650;2023-06-26T15:50:53;176405.39;;;27.92
47484;BMP280;54076;50.322;18.650;2023-06-26T15:55:54;177342.14;;;29.07
47484;BMP280;54076;50.322;18.650;2023-06-26T16:00:55;177969.20;;;29.87
47484;BMP280;54076;50.322;18.650;2023-06-26T16:05:56;178418.91;;;30.48
47484;BMP280;54076;50.322;18.650;2023-06-26T16:10:57;178444.53;;;30.52
47484;BMP280;54076;50.322;18.650;2023-06-26T16:15:59;178761.47;;;30.94
47484;BMP280;54076;50.322;18.650;2023-06-26T16:21:00;178526.92;;;30.63
47484;BMP280;54076;50.322;18.650;2023-06-26T16:26:01;177915.45;;;29.82
47484;BMP280;54076;50.322;18.650;2023-06-26T16:31:01;178921.33;;;31.16
47484;BMP280;54076;50.322;18.650;2023-06-26T16:36:03;179653.34;;;32.21
47484;BMP280;54076;50.322;18.650;2023-06-26T16:41:04;178928.42;;;31.18
47484;BMP280;54076;50.322;18.650;2023-06-26T16:46:05;179551.69;;;32.06
47484;BMP280;54076;50.322;18.650;2023-06-26T16:51:06;179824.33;;;32.47
47484;BMP280;54076;50.322;18.650;2023-06-26T16:56:06;179707.03;;;32.29
47484;BMP280;54076;50.322;18.650;2023-06-26T17:01:07;179811.89;;;32.45
47484;BMP280;54076;50.322;18.650;2023-06-26T17:06:08;180575.78;;;33.60
47484;BMP280;54076;50.322;18.650;2023-06-26T17:11:10;179582.80;;;32.12
47484;BMP280;54076;50.322;18.650;2023-06-26T17:16:11;179945.42;;;32.66
47484;BMP280;54076;50.322;18.650;2023-06-26T17:21:12;179536.84;;;32.07
47484;BMP280;54076;50.322;18.650;2023-06-26T17:26:13;179848.63;;;32.52
47484;BMP280;54076;50.322;18.650;2023-06-26T17:31:14;179654.72;;;32.25
47484;BMP280;54076;50.322;18.650;2023-06-26T17:36:15;179419.78;;;31.90
47484;BMP280;54076;50.322;18.650;2023-06-26T17:41:16;179757.73;;;32.39
47484;BMP280;54076;50.322;18.650;2023-06-26T17:46:17;179193.63;;;31.59
47484;BMP280;54076;50.322;18.650;2023-06-26T17:51:17;178822.36;;;31.08
47484;BMP280;54076;50.322;18.650;2023-06-26T17:56:18;178822.81;;;31.08
47484;BMP280;54076;50.322;18.650;2023-06-26T18:01:19;177999.16;;;29.97
47484;BMP280;54076;50.322;18.650;2023-06-26T18:06:20;177705.28;;;29.58
47484;BMP280;54076;50.322;18.650;2023-06-26T18:11:21;174500.95;;;26.03
47484;BMP280;54076;50.322;18.650;2023-06-26T18:16:22;172958.28;;;24.40
47484;BMP280;54076;50.322;18.650;2023-06-26T18:21:27;173549.59;;;24.83
47484;BMP280;54076;50.322;18.650;2023-06-26T18:26:28;171947.55;;;23.51
47484;BMP280;54076;50.322;18.650;2023-06-26T18:31:29;170862.66;;;22.58
47484;BMP280;54076;50.322;18.650;2023-06-26T18:36:30;170043.50;;;21.90
47484;BMP280;54076;50.322;18.650;2023-06-26T18:41:31;169634.47;;;21.53
47484;BMP280;54076;50.322;18.650;2023-06-26T18:46:32;169219.69;;;21.23
47484;BMP280;54076;50.322;18.650;2023-06-26T18:51:34;168735.88;;;20.85
47484;BMP280;54076;50.322;18.650;2023-06-26T18:56:35;168504.98;;;20.69
47484;BMP280;54076;50.322;18.650;2023-06-26T19:01:36;168277.80;;;20.53
47484;BMP280;54076;50.322;18.650;2023-06-26T19:06:37;167988.41;;;20.27
47484;BMP280;54076;50.322;18.650;2023-06-26T19:11:38;167696.53;;;19.99
47484;BMP280;54076;50.322;18.650;2023-06-26T19:16:39;167423.27;;;19.74
47484;BMP280;54076;50.322;18.650;2023-06-26T19:21:40;167249.30;;;19.56
47484;BMP280;54076;50.322;18.650;2023-06-26T19:26:41;167106.75;;;19.44
47484;BMP280;54076;50.322;18.650;2023-06-26T19:31:42;166741.92;;;19.17
47484;BMP280;54076;50.322;18.650;2023-06-26T19:36:43;166621.41;;;19.07
47484;BMP280;54076;50.322;18.650;2023-06-26T19:41:45;166562.70;;;19.03
47484;BMP280;54076;50.322;18.650;2023-06-26T19:46:46;166497.30;;;19.00
47484;BMP280;54076;50.322;18.650;2023-06-26T19:51:47;166416.34;;;18.96
47484;BMP280;54076;50.322;18.650;2023-06-26T19:56:48;166144.86;;;18.77
47484;BMP280;54076;50.322;18.650;2023-06-26T20:01:49;166015.20;;;18.69
47484;BMP280;54076;50.322;18.650;2023-06-26T20:06:50;165933.22;;;18.63
47484;BMP280;54076;50.322;18.650;2023-06-26T20:11:52;165976.45;;;18.66
47484;BMP280;54076;50.322;18.650;2023-06-26T20:16:53;165810.97;;;18.54
47484;BMP280;54076;50.322;18.650;2023-06-26T20:21:54;165174.00;;;18.11
47484;BMP280;54076;50.322;18.650;2023-06-26T20:26:55;164956.66;;;17.98
47484;BMP280;54076;50.322;18.650;2023-06-26T20:31:56;165045.94;;;18.04
47484;BMP280;54076;50.322;18.650;2023-06-26T20:36:57;165104.95;;;18.07
47484;BMP280;54076;50.322;18.650;2023-06-26T20:41:58;164903.14;;;17.94
47484;BMP280;54076;50.322;18.650;2023-06-26T20:47:00;164649.59;;;17.77
47484;BMP280;54076;50.322;18.650;2023-06-26T20:52:13;164390.38;;;17.61
47484;BMP280;54076;50.322;18.650;2023-06-26T20:57:16;164401.55;;;17.62
47484;BMP280;54076;50.322;18.650;2023-06-26T21:02:18;164348.47;;;17.58
47484;BMP280;54076;50.322;18.650;2023-06-26T21:07:19;164359.80;;;17.59
47484;BMP280;54076;50.322;18.650;2023-06-26T21:12:19;164385.92;;;17.61
47484;BMP280;54076;50.322;18.650;2023-06-26T21:17:21;164381.95;;;17.61
47484;BMP280;54076;50.322;18.650;2023-06-26T21:22:21;164528.02;;;17.70
47484;BMP280;54076;50.322;18.650;2023-06-26T21:27:22;164294.16;;;17.54
47484;BMP280;54076;50.322;18.650;2023-06-26T21:32:23;164093.20;;;17.42
47484;BMP280;54076;50.322;18.650;2023-06-26T21:37:24;164179.66;;;17.47
47484;BMP280;54076;50.322;18.650;2023-06-26T21:42:25;164300.06;;;17.55
47484;BMP280;54076;50.322;18.650;2023-06-26T21:47:26;164150.28;;;17.46
47484;BMP280;54076;50.322;18.650;2023-06-26T21:52:27;164092.67;;;17.42
47484;BMP280;54076;50.322;18.650;2023-06-26T21:57:28;164306.59;;;17.56
47484;BMP280;54076;50.322;18.650;2023-06-26T22:02:29;164257.09;;;17.52
47484;BMP280;54076;50.322;18.650;2023-06-26T22:07:30;164243.72;;;17.51
47484;BMP280;54076;50.322;18.650;2023-06-26T22:12:31;164468.91;;;17.66
47484;BMP280;54076;50.322;18.650;2023-06-26T22:17:49;164239.23;;;17.51
47484;BMP280;54076;50.322;18.650;2023-06-26T22:22:50;162827.61;;;16.64
47484;BMP280;54076;50.322;18.650;2023-06-26T22:27:53;162564.59;;;16.48
47484;BMP280;54076;50.322;18.650;2023-06-26T22:32:54;162801.44;;;16.63
47484;BMP280;54076;50.322;18.650;2023-06-26T22:37:55;162826.31;;;16.64
47484;BMP280;54076;50.322;18.650;2023-06-26T22:42:56;162623.84;;;16.51
47484;BMP280;54076;50.322;18.650;2023-06-26T22:47:57;162309.08;;;16.32
47484;BMP280;54076;50.322;18.650;2023-06-26T22:52:58;161552.63;;;15.87
47484;BMP280;54076;50.322;18.650;2023-06-26T22:58:00;160836.05;;;15.44
47484;BMP280;54076;50.322;18.650;2023-06-26T23:03:01;160453.45;;;15.11
47484;BMP280;54076;50.322;18.650;2023-06-26T23:08:02;160237.53;;;14.71
47484;BMP280;54076;50.322;18.650;2023-06-26T23:13:04;160038.17;;;14.36
47484;BMP280;54076;50.322;18.650;2023-06-26T23:18:05;159950.92;;;14.25
47484;BMP280;54076;50.322;18.650;2023-06-26T23:23:06;159938.92;;;14.21
47484;BMP280;54076;50.322;18.650;2023-06-26T23:28:07;159953.47;;;14.13
47484;BMP280;54076;50.322;18.650;2023-06-26T23:33:07;159945.63;;;14.05
47484;BMP280;54076;50.322;18.650;2023-06-26T23:38:08;160401.83;;;14.28
47484;BMP280;54076;50.322;18.650;2023-06-26T23:43:09;160403.70;;;14.26
47484;BMP280;54076;50.322;18.650;2023-06-26T23:48:12;160423.98;;;14.27
47484;BMP280;54076;50.322;18.650;2023-06-26T23:53:13;160391.09;;;14.24
47484;BMP280;54076;50.322;18.650;2023-06-26T23:58:14;160055.19;;;14.03
